Royalton, Illinois
Current Conditions -  °F | °C
As of 3:52 AM on Wednesday 26 Nov 2014 (Local Time) from KMDH Reporting Station
Clear Clear  
Wind Chill: 21°   Ceiling: Unl
Heat Index: 21°   Visibility: 7mi
Dew Point: 19°   Wind: 3mph
Humidity: 92%   Direction: 100°E
Pressure: 30.13"   Gusts: NA
Location:  37.88°N, 89.11°W
Report Text: KMDH 260952Z AUTO 10003KT 7SM CLR M06/M07 A3013 RMK AO2 SLP206 I1000 T10611072
Loading
Personal Weather Stations






























Interactive Weather Map New forecast layout! Learn more

10-Day Weather Forecast

Advertisements
Track Severe Weather on mobile